Meath Environmental Platform

Observations for Trim Patrick St

Time AQI Temp °C Hum % Pres Pa CO μg/m³ H₂S μg/m³ NO μg/m³ NO₂ μg/m³ O₃ μg/m³ SO₂ μg/m³ PM1 μg/m³ PM2.5 μg/m³ PM10 μg/m³
Sunday 2 August 2026
12:18 2 26.5 41 69,010 0 0 1.48 8.6 77.37 9.13 3.71 9.31 10.25
12:17 2 26.5 38 69,045 0 0 1.4 18.33 129.97 9.04 2.86 8.71 9.59
12:16 2 26.5 42 69,029 0 0 1.58 11.17 72.43 8.51 3.71 9.29 10.22
12:14 2 26.5 40 69,049 0 0 1.55 14.63 106.46 8.56 2.86 9.38 10.32
12:12 2 26.5 40 69,049 0 0 1.52 13.95 79 9.09 4.57 10.21 11.23
12:10 2 26.5 39 69,041 0 0 1.51 12.82 75.77 7.63 2 7.88 8.67
12:09 2 26.5 39 69,049 0 0 1.5 9.56 74.52 7.64 2.86 8.7 9.57
12:08 2 26.6 39 69,035 0 0 1.5 18.51 91.89 8.86 4.57 10.27 11.3
12:07 2 26.6 39 69,043 0 0 1.51 13.81 80.26 8.39 4.57 9.47 10.41
12:06 2 26.6 39 69,055 0 0 1.51 11.53 77.21 8.58 3.71 9.45 10.4
12:04 2 26.6 39 69,067 0 0 1.5 6.42 72.51 7.86 2 7.9 8.69
12:03 2 26.7 38 69,088 0 0 1.48 12.57 91.39 8.41 3.71 9.5 10.45
12:02 2 26.7 40 69,112 0 0 1.53 9.33 74.88 9.54 4.57 10.2 11.22
11:59 2 26.7 39 69,045 0 0 1.51 12.03 79.73 8.97 3.71 10.25 11.28
11:55 2 26.8 40 69,057 0 0 1.6 15.65 73.19 7.03 3.71 9.43 10.38
11:54 2 26.8 40 69,041 0 0 1.64 12.16 69.21 8.86 2.86 8.6 9.46
11:53 2 26.8 39 69,049 0 0 1.5 12.87 75.37 8.25 2.86 8.67 9.53
11:52 2 26.8 39 69,033 0 0 1.47 10.48 72.98 8.06 4.57 10.23 11.26
11:51 2 26.7 39 69,041 0.01 0 1.44 9.05 74.69 8.27 3.71 10.26 11.29
11:50 2 26.7 39 69,047 0 0 1.43 23.98 80.42 7.4 2 8.69 9.56